Jessore, Bangladesh
Current Conditions -  °F | °C
As of 3:20 PM on Saturday 25 Oct 2014 (Local Time) from VECC Reporting Station
Haze Haze  
Wind Chill: 90°   Ceiling: Unl
Heat Index: 90°   Visibility: 2.3mi
Dew Point: 61°   Wind: 6mph
Humidity: 38%   Direction: 330°NNW
Pressure: 29.83"   Gusts: NA
Location:  23.15°N, 89.21°E
Report Text: VECC 250920Z 33005KT 3800 HZ FEW020 SCT100 32/16 Q1010 NOSIG
Loading
Personal Weather Stations






























Interactive Weather Map
Tropical Storm Tracking
New forecast layout! Learn more

10-Day Weather Forecast

Advertisements
Track Severe Weather on mobile